Time;durP1;ratioP1;P1;durP2;ratioP2;P2;SDS_P1;SDS_P2;PMS_P1;PMS_P2;Temp;Humidity;BMP_temperature;BMP_pressure;BME280_temperature;BME280_humidity;BME280_pressure;Samples;Min_cycle;Max_cycle;Signal;HPM_P1;HPM_P2
2021/06/17 00:00:26;;;;;;;8.20;4.97;;;;;;;19.82;74.53;95337.75;1029375;28;20098;-77
2021/06/17 00:00:56;;;;;;;10.70;5.03;;;;;;;19.87;74.68;95360.22;1037319;28;20014;-77
2021/06/17 00:01:27;;;;;;;10.02;4.72;;;;;;;19.69;75.25;95342.41;1037237;28;20041;-78
2021/06/17 00:01:59;;;;;;;11.05;4.75;;;;;;;19.70;76.00;95356.72;1041274;28;20095;-77
2021/06/17 00:02:30;;;;;;;10.27;5.15;;;;;;;19.72;75.86;95351.91;1041398;28;20045;-79
2021/06/17 00:03:01;;;;;;;7.70;4.80;;;;;;;19.72;75.86;95344.63;1041573;28;20013;-79
2021/06/17 00:03:31;;;;;;;9.02;4.85;;;;;;;19.70;75.93;95348.63;1033359;28;20015;-78
2021/06/17 00:04:02;;;;;;;7.88;4.45;;;;;;;19.65;76.12;95341.28;1028962;28;20113;-77
2021/06/17 00:04:35;;;;;;;10.02;5.35;;;;;;;19.74;76.41;95353.28;1041438;28;20024;-77
2021/06/17 00:05:07;;;;;;;7.05;4.63;;;;;;;19.67;77.11;95341.03;1041230;28;20044;-76
2021/06/17 00:05:38;;;;;;;7.65;4.45;;;;;;;19.71;76.90;95348.38;1029107;28;20468;-79
2021/06/17 00:06:09;;;;;;;7.82;4.60;;;;;;;19.68;77.12;95350.75;1037256;28;20036;-78
2021/06/17 00:06:40;;;;;;;7.85;4.95;;;;;;;19.67;77.45;95349.13;1045353;28;20020;-78
2021/06/17 00:07:11;;;;;;;7.18;4.80;;;;;;;19.70;77.38;95354.03;1045224;28;20513;-78
2021/06/17 00:07:41;;;;;;;8.73;5.38;;;;;;;19.69;77.48;95347.81;1037195;28;20029;-79
2021/06/17 00:08:12;;;;;;;7.55;5.13;;;;;;;19.75;77.58;95352.25;1036902;28;20571;-78
2021/06/17 00:08:43;;;;;;;8.88;5.15;;;;;;;19.62;78.40;95346.34;1041064;28;20022;-78
2021/06/17 00:09:13;;;;;;;9.93;5.32;;;;;;;19.49;78.51;95339.44;1036927;28;20104;-78
2021/06/17 00:09:44;;;;;;;12.68;5.18;;;;;;;19.44;79.21;95333.97;1032995;28;20444;-78
2021/06/17 00:10:27;;;;;;;7.70;4.22;;;;;;;19.38;79.10;95335.78;1036986;28;20101;-78
2021/06/17 00:10:58;;;;;;;9.18;4.90;;;;;;;19.47;78.91;95337.00;1035026;28;20465;-78
2021/06/17 00:11:28;;;;;;;12.55;4.95;;;;;;;19.45;79.22;95325.63;1036959;28;20024;-78
2021/06/17 00:12:02;;;;;;;8.95;5.00;;;;;;;19.46;79.92;95332.66;1041185;28;20562;-79
2021/06/17 00:12:32;;;;;;;8.68;4.82;;;;;;;19.55;80.06;95349.22;1041087;28;20502;-77
2021/06/17 00:13:08;;;;;;;8.63;4.60;;;;;;;19.31;80.65;95330.56;1033141;28;20018;-78
2021/06/17 00:13:39;;;;;;;8.05;4.80;;;;;;;19.37;80.73;95342.25;1041332;28;20506;-78
2021/06/17 00:14:10;;;;;;;8.30;5.40;;;;;;;19.42;80.63;95350.41;1036979;28;20112;-78
2021/06/17 00:14:41;;;;;;;9.25;4.78;;;;;;;19.36;80.63;95352.19;1037119;28;20018;-79
2021/06/17 00:15:12;;;;;;;9.35;5.10;;;;;;;19.36;81.11;95344.09;1041066;28;20078;-78
2021/06/17 00:15:43;;;;;;;10.65;5.15;;;;;;;19.36;80.74;95344.09;1045181;28;20028;-78
2021/06/17 00:16:13;;;;;;;10.70;5.18;;;;;;;19.35;81.40;95350.56;1033045;28;20489;-77
2021/06/17 00:16:44;;;;;;;9.02;4.72;;;;;;;19.38;81.14;95346.53;1037052;28;20448;-78
2021/06/17 00:17:15;;;;;;;7.07;5.10;;;;;;;19.44;80.90;95352.81;1033074;28;20022;-78
2021/06/17 00:17:45;;;;;;;6.82;4.55;;;;;;;19.49;80.40;95351.03;1045592;28;20047;-78
2021/06/17 00:18:16;;;;;;;6.57;4.85;;;;;;;19.45;80.83;95351.75;1045492;28;20505;-80
2021/06/17 00:18:47;;;;;;;9.70;5.22;;;;;;;19.40;81.41;95344.41;1045264;28;20033;-78
2021/06/17 00:19:18;;;;;;;8.60;5.50;;;;;;;19.43;82.58;95354.69;1049348;28;20473;-77
2021/06/17 00:19:49;;;;;;;9.00;5.47;;;;;;;19.36;82.91;95352.19;1045625;28;20029;-78
2021/06/17 00:20:20;;;;;;;7.47;5.45;;;;;;;19.40;82.90;95347.94;1045120;28;20053;-77
2021/06/17 00:20:50;;;;;;;8.88;6.03;;;;;;;19.46;82.96;95346.13;1041264;28;20029;-78
2021/06/17 00:21:21;;;;;;;11.77;5.82;;;;;;;19.48;82.73;95348.59;1040949;28;20092;-77
2021/06/17 00:21:52;;;;;;;9.25;5.90;;;;;;;19.44;82.94;95344.72;1032995;28;20066;-77
2021/06/17 00:22:22;;;;;;;8.52;5.85;;;;;;;19.51;83.00;95353.47;1037292;28;20047;-78
2021/06/17 00:22:53;;;;;;;9.57;5.45;;;;;;;19.54;83.18;95359.19;1037175;28;20096;-79
2021/06/17 00:23:24;;;;;;;9.85;5.47;;;;;;;19.35;83.26;95329.00;1041575;28;20064;-79
2021/06/17 00:23:54;;;;;;;11.68;5.72;;;;;;;19.45;83.19;95338.28;1033196;28;20385;-77
2021/06/17 00:24:25;;;;;;;10.43;5.60;;;;;;;19.55;83.31;95349.22;1032945;28;20121;-77
2021/06/17 00:24:55;;;;;;;9.27;5.35;;;;;;;19.43;83.73;95337.75;1040913;28;20100;-77
2021/06/17 00:25:26;;;;;;;6.90;5.28;;;;;;;19.45;83.52;95349.06;1033004;28;20057;-78
2021/06/17 00:25:57;;;;;;;12.60;5.85;;;;;;;19.53;83.65;95352.16;1036924;28;20026;-77
2021/06/17 00:26:27;;;;;;;7.85;5.18;;;;;;;19.54;83.71;95347.59;1045199;28;20395;-79
2021/06/17 00:26:58;;;;;;;10.98;5.68;;;;;;;19.14;83.83;95295.59;1036854;28;20045;-77
2021/06/17 00:27:28;;;;;;;8.27;5.93;;;;;;;19.47;84.27;95346.94;1037066;28;20507;-79
2021/06/17 00:27:59;;;;;;;16.75;6.35;;;;;;;19.37;84.79;95342.25;1041212;28;20024;-77
2021/06/17 00:28:30;;;;;;;9.50;6.00;;;;;;;19.36;84.81;95336.00;1041332;28;20075;-77
2021/06/17 00:29:00;;;;;;;10.57;5.70;;;;;;;19.40;84.92;95353.34;1041604;28;20017;-78
2021/06/17 00:29:31;;;;;;;8.38;6.07;;;;;;;19.48;85.34;95354.78;1028870;28;20018;-78
2021/06/17 00:30:03;;;;;;;8.18;5.90;;;;;;;19.41;85.51;95340.66;1037048;28;20546;-79
2021/06/17 00:30:34;;;;;;;7.63;5.63;;;;;;;19.45;84.52;95343.69;1036915;28;20014;-78
2021/06/17 00:31:05;;;;;;;9.75;5.15;;;;;;;19.42;84.32;95358.47;1037072;28;20013;-77
2021/06/17 00:31:36;;;;;;;8.25;5.05;;;;;;;19.32;84.21;95345.66;1032684;28;20189;-77
2021/06/17 00:32:07;;;;;;;7.15;5.10;;;;;;;19.27;84.75;95355.53;1032778;28;20452;-77
2021/06/17 00:32:37;;;;;;;11.25;5.65;;;;;;;19.19;84.78;95340.59;1040887;28;20108;-77
2021/06/17 00:33:08;;;;;;;11.73;5.50;;;;;;;19.27;84.88;95356.34;1045425;28;20017;-77
2021/06/17 00:33:39;;;;;;;9.23;4.68;;;;;;;19.25;84.84;95350.41;1044926;28;20033;-77
2021/06/17 00:34:09;;;;;;;7.88;5.13;;;;;;;19.20;84.75;95336.84;1036830;28;20021;-77
2021/06/17 00:34:40;;;;;;;8.70;5.55;;;;;;;19.24;84.80;95348.75;1029103;28;20014;-77
2021/06/17 00:35:11;;;;;;;8.20;5.30;;;;;;;19.33;84.62;95352.69;1041137;28;20105;-77
2021/06/17 00:35:42;;;;;;;8.32;5.43;;;;;;;19.38;84.63;95355.47;1045412;28;20017;-78
2021/06/17 00:36:12;;;;;;;11.82;5.18;;;;;;;19.36;84.58;95346.78;1045350;28;20134;-77
2021/06/17 00:36:43;;;;;;;13.05;5.22;;;;;;;19.28;84.68;95349.06;1041370;28;20167;-78
2021/06/17 00:37:13;;;;;;;10.90;4.85;;;;;;;19.28;84.93;95354.47;1041128;28;20025;-78
2021/06/17 00:37:44;;;;;;;8.85;5.25;;;;;;;19.22;85.25;95349.00;1041007;28;20506;-78
2021/06/17 00:38:15;;;;;;;8.77;5.03;;;;;;;19.20;85.60;95353.81;1036938;28;20089;-79
2021/06/17 00:38:45;;;;;;;10.05;5.70;;;;;;;19.08;86.03;95341.50;1033009;28;20030;-78
2021/06/17 00:39:16;;;;;;;8.48;5.53;;;;;;;19.09;86.05;95335.03;1032588;28;20038;-76
2021/06/17 00:39:46;;;;;;;9.63;5.80;;;;;;;19.19;86.34;95351.38;1032875;28;20108;-77
2021/06/17 00:40:17;;;;;;;13.05;5.72;;;;;;;19.11;86.42;95343.72;1032755;28;20508;-77
2021/06/17 00:40:51;;;;;;;9.15;5.38;;;;;;;19.14;86.56;95351.28;1032494;28;20026;-77
2021/06/17 00:41:21;;;;;;;9.68;5.63;;;;;;;19.16;86.61;95347.31;1032734;28;20029;-78
2021/06/17 00:41:52;;;;;;;8.35;5.40;;;;;;;19.11;86.85;95346.41;1024738;28;20034;-77
2021/06/17 00:42:22;;;;;;;7.20;4.97;;;;;;;19.02;87.10;95336.03;1040755;28;20080;-78
2021/06/17 00:42:53;;;;;;;11.48;5.35;;;;;;;19.11;87.37;95341.03;1041086;28;20017;-79
2021/06/17 00:43:24;;;;;;;9.63;5.57;;;;;;;19.11;87.54;95343.72;1025015;29;20023;-77
2021/06/17 00:43:54;;;;;;;10.45;5.45;;;;;;;19.03;87.33;95329.59;1032768;28;20117;-76
2021/06/17 00:44:25;;;;;;;10.60;5.60;;;;;;;19.04;87.63;95341.19;1032782;28;20069;-79
2021/06/17 00:44:56;;;;;;;9.77;5.30;;;;;;;18.89;87.67;95319.41;1025027;29;20031;-80
2021/06/17 00:45:31;;;;;;;9.05;5.63;;;;;;;18.99;87.96;95349.19;1032941;28;20022;-77
2021/06/17 00:46:02;;;;;;;8.18;5.55;;;;;;;18.97;88.18;95344.03;1037555;28;20037;-79
2021/06/17 00:46:32;;;;;;;8.55;5.63;;;;;;;18.92;88.26;95324.31;1036844;28;20120;-76
2021/06/17 00:47:03;;;;;;;9.68;5.88;;;;;;;19.05;87.73;95334.72;1032594;28;20030;-76
2021/06/17 00:47:34;;;;;;;8.63;5.25;;;;;;;19.09;88.10;95346.66;1032906;28;20029;-78
2021/06/17 00:48:05;;;;;;;13.50;6.72;;;;;;;19.07;88.58;95340.69;1032843;28;20491;-78
2021/06/17 00:48:36;;;;;;;10.68;6.40;;;;;;;19.11;88.57;95338.34;1033084;28;20495;-77
2021/06/17 00:49:06;;;;;;;11.88;6.18;;;;;;;19.05;88.62;95325.84;1041023;28;20130;-77
2021/06/17 00:49:37;;;;;;;10.40;6.40;;;;;;;19.09;88.65;95337.75;1032687;28;20539;-78
2021/06/17 00:50:08;;;;;;;10.00;6.32;;;;;;;19.05;88.70;95323.16;1036496;28;20026;-78
2021/06/17 00:50:44;;;;;;;13.80;6.57;;;;;;;19.07;88.82;95337.16;1040703;28;20139;-79
2021/06/17 00:51:14;;;;;;;8.77;6.18;;;;;;;19.10;89.11;95347.47;1036895;28;20034;-79
2021/06/17 00:51:45;;;;;;;9.75;6.03;;;;;;;19.04;88.88;95327.72;1024801;29;20383;-79
2021/06/17 00:52:15;;;;;;;8.95;6.45;;;;;;;19.07;88.88;95337.16;1037795;28;20062;-78
2021/06/17 00:52:46;;;;;;;13.98;6.30;;;;;;;19.02;88.82;95332.53;1037071;28;20049;-78
2021/06/17 00:53:19;;;;;;;12.13;6.32;;;;;;;18.95;88.37;95316.56;1037314;28;20026;-78
2021/06/17 00:53:49;;;;;;;11.82;6.38;;;;;;;19.05;88.59;95340.09;1037996;28;20022;-78
2021/06/17 00:54:32;;;;;;;10.38;5.75;;;;;;;19.05;88.65;95344.69;1040964;28;20033;-76
2021/06/17 00:55:03;;;;;;;10.15;6.18;;;;;;;18.99;88.18;95325.75;1034756;28;20022;-77
2021/06/17 00:55:34;;;;;;;10.18;5.63;;;;;;;18.94;87.96;95322.97;1024532;28;20031;-77
2021/06/17 00:56:04;;;;;;;10.38;5.53;;;;;;;19.02;87.46;95336.03;1044787;28;20115;-76
2021/06/17 00:56:35;;;;;;;8.65;5.80;;;;;;;18.97;87.06;95327.06;1044780;28;20021;-76
2021/06/17 00:57:08;;;;;;;8.25;5.35;;;;;;;19.06;86.90;95330.19;1032505;28;20547;-77
2021/06/17 00:57:38;;;;;;;9.18;6.40;;;;;;;18.93;87.22;95321.38;1032477;28;20031;-78
2021/06/17 00:58:09;;;;;;;8.90;5.25;;;;;;;19.05;87.38;95340.09;1036431;28;20022;-77
2021/06/17 00:58:40;;;;;;;7.72;5.13;;;;;;;19.06;87.28;95338.25;1041048;28;20479;-78
2021/06/17 00:59:10;;;;;;;10.43;6.13;;;;;;;18.96;87.40;95331.63;1032544;28;20141;-77
2021/06/17 00:59:41;;;;;;;11.95;5.63;;;;;;;18.92;87.77;95330.50;1040815;28;20516;-77
2021/06/17 01:00:13;;;;;;;10.02;5.43;;;;;;;18.96;88.04;95336.19;1036732;28;20157;-76
2021/06/17 01:00:44;;;;;;;8.20;5.30;;;;;;;18.75;88.36;95302.72;1029161;28;20023;-78
2021/06/17 01:01:14;;;;;;;7.53;5.10;;;;;;;18.74;88.99;95327.97;1041323;28;20447;-78
2021/06/17 01:01:45;;;;;;;7.85;5.70;;;;;;;18.82;89.16;95333.00;1029027;28;20101;-78
2021/06/17 01:02:16;;;;;;;9.65;5.47;;;;;;;18.76;89.51;95326.69;1037187;28;20412;-78
2021/06/17 01:02:46;;;;;;;9.48;6.20;;;;;;;18.76;89.70;95333.97;1037166;28;20052;-78
2021/06/17 01:03:17;;;;;;;9.20;5.97;;;;;;;18.72;89.97;95330.91;1036881;28;20113;-78
2021/06/17 01:03:47;;;;;;;9.90;6.00;;;;;;;18.78;89.93;95346.09;1032964;28;20118;-78
2021/06/17 01:04:18;;;;;;;8.32;5.40;;;;;;;18.66;90.19;95338.09;1028992;28;20030;-78
2021/06/17 01:04:49;;;;;;;11.13;5.50;;;;;;;18.76;90.16;95333.97;1033563;28;20472;-79
2021/06/17 01:05:20;;;;;;;9.07;5.82;;;;;;;18.64;90.32;95328.63;1037205;28;20078;-78
2021/06/17 01:05:50;;;;;;;9.18;5.85;;;;;;;18.70;90.74;95337.59;1029032;28;20468;-78
2021/06/17 01:06:21;;;;;;;7.55;5.97;;;;;;;18.65;90.55;95338.31;1028926;28;20109;-78
2021/06/17 01:06:52;;;;;;;8.40;6.03;;;;;;;18.59;90.22;95323.16;1029226;28;20078;-78
2021/06/17 01:07:35;;;;;;;6.97;5.60;;;;;;;18.72;90.46;95346.25;1037511;28;20025;-78
2021/06/17 01:08:43;;;;;;;10.05;5.40;;;;;;;18.72;89.80;95346.25;1037439;28;20535;-78
2021/06/17 01:09:32;;;;;;;7.93;5.10;;;;;;;18.68;90.07;95345.09;1036031;28;20114;-78
2021/06/17 01:10:07;;;;;;;11.10;5.53;;;;;;;18.61;90.16;95351.44;1037470;28;20079;-77
2021/06/17 01:10:59;;;;;;;12.48;5.40;;;;;;;18.55;90.48;95330.06;1041477;28;20025;-78
2021/06/17 01:11:37;;;;;;;7.53;5.25;;;;;;;18.63;90.63;95345.81;1037319;28;20021;-76
2021/06/17 01:12:36;;;;;;;8.05;6.10;;;;;;;18.42;91.03;95321.25;1033991;28;20147;-76
2021/06/17 01:13:23;;;;;;;8.45;5.18;;;;;;;18.42;91.39;95317.75;1039692;28;20468;-77
2021/06/17 01:14:08;;;;;;;8.02;5.25;;;;;;;18.55;91.45;95338.13;1043559;28;20032;-78
2021/06/17 01:15:02;;;;;;;7.60;5.38;;;;;;;18.54;91.32;95329.25;1031223;28;20023;-76
2021/06/17 01:15:33;;;;;;;8.52;5.85;;;;;;;18.50;91.34;95330.81;1039217;28;20026;-77
2021/06/17 01:16:43;;;;;;;9.32;6.50;;;;;;;18.45;91.47;95319.97;1038932;28;20049;-77
2021/06/17 01:17:14;;;;;;;6.78;5.40;;;;;;;18.40;91.90;95311.81;1034415;28;20030;-76
2021/06/17 01:17:52;;;;;;;11.50;5.90;;;;;;;18.44;92.40;95329.06;1037342;28;20017;-77
2021/06/17 01:18:22;;;;;;;7.97;5.97;;;;;;;18.50;92.57;95336.19;1038841;28;20268;-76
2021/06/17 01:18:55;;;;;;;8.77;6.13;;;;;;;18.39;92.69;95327.13;1038639;28;20091;-78
2021/06/17 01:19:32;;;;;;;10.38;6.05;;;;;;;18.45;92.89;95336.09;1032784;28;20353;-76
2021/06/17 01:20:21;;;;;;;8.57;5.60;;;;;;;18.51;92.65;95340.50;1032385;28;20034;-76
2021/06/17 01:20:56;;;;;;;10.32;5.60;;;;;;;18.47;92.37;95329.41;1036412;28;20041;-76
2021/06/17 01:21:27;;;;;;;9.40;5.68;;;;;;;18.53;92.42;95334.88;1036506;28;20480;-76
2021/06/17 01:21:57;;;;;;;10.65;5.82;;;;;;;18.55;92.16;95338.13;1036612;28;20018;-77
2021/06/17 01:22:56;;;;;;;11.40;5.50;;;;;;;18.54;92.10;95328.47;1036414;28;20048;-78
2021/06/17 01:23:32;;;;;;;9.18;5.20;;;;;;;18.54;92.20;95334.63;1032522;28;20026;-76
2021/06/17 01:24:11;;;;;;;8.27;5.38;;;;;;;18.54;92.21;95328.47;1029441;28;20066;-78
2021/06/17 01:25:23;;;;;;;7.78;5.25;;;;;;;18.50;92.69;95335.38;1036967;28;20030;-78
2021/06/17 01:26:23;;;;;;;9.70;5.45;;;;;;;18.52;92.70;95331.38;1036292;28;20550;-78
2021/06/17 01:27:08;;;;;;;11.00;5.72;;;;;;;18.54;92.42;95331.94;1036377;28;20076;-77
2021/06/17 01:28:13;;;;;;;7.28;5.10;;;;;;;18.53;92.54;95322.28;1036341;28;20040;-77
2021/06/17 01:28:44;;;;;;;8.90;5.55;;;;;;;18.46;92.36;95316.19;1034895;28;20023;-76
2021/06/17 01:29:20;;;;;;;11.25;5.63;;;;;;;18.39;92.25;95302.09;1036471;28;20030;-76
2021/06/17 01:29:52;;;;;;;10.82;5.82;;;;;;;18.47;92.43;95317.84;1036490;28;20030;-78
2021/06/17 01:30:23;;;;;;;8.30;5.80;;;;;;;18.50;92.79;95328.13;1032357;28;20493;-76
2021/06/17 01:31:14;;;;;;;8.50;6.00;;;;;;;18.30;92.97;95295.47;1028158;28;20118;-76
2021/06/17 01:31:45;;;;;;;10.95;5.15;;;;;;;18.47;92.96;95317.84;1028232;28;20354;-78
2021/06/17 01:32:17;;;;;;;8.43;5.30;;;;;;;18.44;92.82;95312.94;1028427;28;20126;-77
2021/06/17 01:33:09;;;;;;;8.73;5.25;;;;;;;18.50;92.63;95328.13;1032337;28;20030;-78
2021/06/17 01:33:42;;;;;;;11.13;5.78;;;;;;;18.36;93.36;95313.34;1036168;28;20109;-78
2021/06/17 01:34:13;;;;;;;9.45;5.65;;;;;;;18.41;93.14;95319.63;1028497;28;20170;-76
2021/06/17 01:34:44;;;;;;;7.80;5.75;;;;;;;18.38;93.14;95327.38;1032366;28;20077;-76
2021/06/17 01:35:16;;;;;;;9.80;5.63;;;;;;;18.37;93.51;95320.34;1032384;28;20457;-76
2021/06/17 01:35:47;;;;;;;7.30;5.80;;;;;;;18.41;93.39;95324.19;1024599;29;20023;-78
2021/06/17 01:36:21;;;;;;;8.25;5.63;;;;;;;18.33;93.22;95320.00;1036569;28;20025;-78
2021/06/17 01:36:58;;;;;;;11.88;5.70;;;;;;;18.32;92.89;95323.75;1024455;28;20023;-78
2021/06/17 01:37:28;;;;;;;8.02;5.90;;;;;;;18.29;93.62;95321.56;1028591;28;20014;-77
2021/06/17 01:38:00;;;;;;;13.18;5.53;;;;;;;18.35;93.85;95336.72;1032583;28;20030;-77
2021/06/17 01:38:31;;;;;;;11.48;5.88;;;;;;;18.29;93.54;95321.56;1032510;28;20488;-78
2021/06/17 01:39:04;;;;;;;7.43;5.20;;;;;;;18.22;93.46;95316.31;1028555;28;20023;-78
2021/06/17 01:39:37;;;;;;;9.13;5.32;;;;;;;18.31;93.43;95332.88;1024478;29;20477;-76
2021/06/17 01:40:08;;;;;;;7.65;5.70;;;;;;;18.34;93.17;95331.56;1028373;28;20094;-76
2021/06/17 01:40:38;;;;;;;9.13;5.53;;;;;;;18.28;92.95;95322.59;1028293;28;20027;-76
2021/06/17 01:41:09;;;;;;;9.13;5.68;;;;;;;18.20;93.00;95318.44;1032559;28;20026;-76
2021/06/17 01:41:43;;;;;;;8.85;5.47;;;;;;;18.27;93.20;95329.03;1032467;28;20100;-76
2021/06/17 01:42:13;;;;;;;8.80;5.40;;;;;;;18.31;92.85;95334.75;1036426;28;20022;-78
2021/06/17 01:42:44;;;;;;;8.02;5.40;;;;;;;18.09;92.79;95282.50;1032461;28;20024;-76
2021/06/17 01:43:16;;;;;;;11.82;5.70;;;;;;;18.26;93.04;95327.41;1032482;28;20603;-77
2021/06/17 01:43:46;;;;;;;6.90;4.90;;;;;;;18.27;92.68;95321.78;1036516;28;20033;-77
2021/06/17 01:44:19;;;;;;;10.85;5.15;;;;;;;18.17;92.94;95316.22;1032351;28;20054;-76
2021/06/17 01:44:50;;;;;;;9.27;5.43;;;;;;;18.14;92.64;95308.63;1036588;28;20030;-78
2021/06/17 01:45:21;;;;;;;8.23;4.95;;;;;;;18.11;92.57;95306.41;1036629;28;20093;-78
2021/06/17 01:45:52;;;;;;;9.18;5.60;;;;;;;18.15;92.66;95315.66;1032548;28;20018;-75
2021/06/17 01:46:22;;;;;;;8.38;5.30;;;;;;;18.18;92.91;95330.47;1032386;28;20014;-76
2021/06/17 01:46:53;;;;;;;7.90;4.90;;;;;;;18.14;93.06;95322.06;1036601;28;20143;-76
2021/06/17 01:47:24;;;;;;;9.20;5.22;;;;;;;18.01;93.43;95308.91;1032445;28;20026;-77
2021/06/17 01:47:55;;;;;;;7.40;4.88;;;;;;;18.09;93.83;95319.28;1024579;29;20023;-78
2021/06/17 01:48:26;;;;;;;10.27;5.05;;;;;;;18.06;93.72;95311.69;1032347;28;20121;-77
2021/06/17 01:48:56;;;;;;;7.82;5.13;;;;;;;18.09;93.59;95312.06;1036544;28;20018;-78
2021/06/17 01:49:27;;;;;;;8.43;5.43;;;;;;;18.15;93.55;95326.41;1028425;28;20113;-77
2021/06/17 01:49:57;;;;;;;6.85;5.00;;;;;;;18.04;93.51;95305.75;1028471;28;20476;-78
2021/06/17 01:50:28;;;;;;;7.38;5.63;;;;;;;18.07;93.35;95311.44;1028060;28;20042;-76
2021/06/17 01:50:59;;;;;;;9.02;5.55;;;;;;;17.86;93.42;95282.56;1028440;28;20060;-76
2021/06/17 01:51:29;;;;;;;10.18;4.97;;;;;;;18.02;93.36;95307.84;1032354;28;20034;-77
2021/06/17 01:52:00;;;;;;;7.28;4.97;;;;;;;18.05;93.50;95310.06;1028639;28;20158;-79
2021/06/17 01:52:31;;;;;;;7.50;4.95;;;;;;;18.14;93.57;95322.06;1032269;28;20118;-77
2021/06/17 01:53:02;;;;;;;7.55;5.35;;;;;;;18.16;93.42;95322.63;1036985;28;20026;-79
2021/06/17 01:53:33;;;;;;;9.02;5.32;;;;;;;18.10;93.49;95315.53;1036997;28;20018;-78
2021/06/17 01:54:04;;;;;;;10.65;5.65;;;;;;;18.17;93.42;95320.78;1029455;28;20069;-80
2021/06/17 01:54:37;;;;;;;5.43;4.55;;;;;;;18.14;93.19;95322.06;1032937;28;20579;-79
2021/06/17 01:55:08;;;;;;;8.13;5.13;;;;;;;18.08;93.11;95309.59;1037137;28;20061;-81
2021/06/17 01:55:39;;;;;;;8.40;5.07;;;;;;;18.15;93.15;95321.03;1037188;28;20025;-77
2021/06/17 01:56:10;;;;;;;7.53;5.00;;;;;;;18.19;93.27;95319.47;1037307;28;20014;-79
2021/06/17 01:56:40;;;;;;;7.35;5.32;;;;;;;18.10;93.16;95302.09;1041149;28;20450;-80
2021/06/17 01:57:12;;;;;;;7.57;5.43;;;;;;;18.20;93.24;95318.44;1033098;28;20113;-80
2021/06/17 01:57:42;;;;;;;6.28;4.68;;;;;;;18.21;93.11;95322.72;1024813;29;20019;-79
2021/06/17 01:58:14;;;;;;;8.95;5.75;;;;;;;18.22;93.17;95327.06;1040806;28;20026;-79
2021/06/17 01:58:46;;;;;;;6.57;5.10;;;;;;;18.20;93.18;95328.34;1032616;28;20069;-78
2021/06/17 01:59:17;;;;;;;6.93;4.90;;;;;;;18.14;93.32;95319.38;1040991;28;20052;-78
2021/06/17 01:59:49;;;;;;;8.70;5.25;;;;;;;18.09;93.37;95313.91;1029043;28;20412;-79
2021/06/17 02:00:20;;;;;;;8.05;5.57;;;;;;;18.14;93.41;95316.69;1024611;28;20114;-78
2021/06/17 02:00:50;;;;;;;12.10;5.53;;;;;;;18.12;93.75;95316.13;1028814;28;20457;-78
2021/06/17 02:01:23;;;;;;;9.40;5.40;;;;;;;17.99;93.68;95294.88;1032889;28;20030;-80
2021/06/17 02:01:57;;;;;;;10.07;5.13;;;;;;;18.18;93.44;95319.72;1036801;28;20026;-78
2021/06/17 02:02:28;;;;;;;8.00;5.40;;;;;;;18.04;93.63;95308.41;1029141;28;20512;-78
2021/06/17 02:03:00;;;;;;;7.75;5.30;;;;;;;18.17;93.58;95324.28;1032886;28;20026;-79
2021/06/17 02:03:30;;;;;;;8.93;5.07;;;;;;;18.04;93.68;95303.88;1036798;28;20105;-78
2021/06/17 02:04:02;;;;;;;9.40;5.43;;;;;;;17.99;94.38;95305.63;1028609;28;20109;-78
2021/06/17 02:04:34;;;;;;;7.55;4.70;;;;;;;18.05;94.33;95312.75;1036785;28;20018;-79
2021/06/17 02:05:06;;;;;;;9.02;5.15;;;;;;;18.05;94.33;95304.69;1024549;28;20027;-80
2021/06/17 02:05:37;;;;;;;8.18;5.20;;;;;;;18.02;94.38;95299.78;1036686;28;20064;-79
2021/06/17 02:06:07;;;;;;;8.32;5.20;;;;;;;18.04;94.46;95303.03;1032490;28;20023;-78
2021/06/17 02:06:39;;;;;;;8.63;5.47;;;;;;;18.01;94.73;95311.56;1028719;28;20118;-79
2021/06/17 02:07:11;;;;;;;7.88;5.50;;;;;;;18.04;94.76;95316.47;1036796;28;20065;-79
2021/06/17 02:07:42;;;;;;;6.65;5.40;;;;;;;17.96;94.68;95298.06;1028753;28;20030;-79
2021/06/17 02:08:14;;;;;;;8.63;5.50;;;;;;;18.05;94.32;95304.69;1028483;28;20502;-78
2021/06/17 02:08:51;;;;;;;7.95;5.30;;;;;;;18.02;94.42;95295.22;1036462;28;20028;-77
2021/06/17 02:09:24;;;;;;;9.70;5.43;;;;;;;17.93;94.74;95290.47;1028269;28;20040;-77
2021/06/17 02:09:55;;;;;;;9.45;5.13;;;;;;;18.04;94.86;95313.78;1036370;28;20450;-77
2021/06/17 02:10:26;;;;;;;9.88;5.40;;;;;;;17.96;94.59;95295.38;1036282;28;20025;-77
2021/06/17 02:10:57;;;;;;;7.63;5.18;;;;;;;17.96;94.59;95290.81;1036205;28;20022;-78
2021/06/17 02:11:28;;;;;;;8.18;5.00;;;;;;;17.98;95.03;95293.28;1032112;28;20054;-77
2021/06/17 02:11:59;;;;;;;9.65;5.65;;;;;;;17.97;95.16;95302.38;1032434;28;20066;-76
2021/06/17 02:12:29;;;;;;;7.55;5.63;;;;;;;17.98;95.25;95299.44;1028281;28;20580;-77
2021/06/17 02:13:00;;;;;;;8.70;5.30;;;;;;;17.98;95.70;95310.19;1036414;28;20166;-76
2021/06/17 02:13:31;;;;;;;7.03;5.43;;;;;;;18.00;95.64;95308.09;1032273;28;20491;-78
2021/06/17 02:14:01;;;;;;;7.78;5.90;;;;;;;17.96;95.72;95295.38;1028313;28;20019;-77
2021/06/17 02:14:32;;;;;;;15.35;5.35;;;;;;;17.82;95.73;95271.44;1032340;28;20026;-78
2021/06/17 02:15:03;;;;;;;10.05;5.28;;;;;;;17.98;95.41;95301.34;1024125;28;20355;-80
2021/06/17 02:15:33;;;;;;;6.63;5.22;;;;;;;17.98;95.20;95295.97;1024678;28;20051;-79
2021/06/17 02:16:04;;;;;;;7.00;5.32;;;;;;;18.06;95.13;95309.84;1028654;28;20540;-78
2021/06/17 02:16:35;;;;;;;9.02;5.72;;;;;;;17.97;95.61;95300.50;1036627;28;20104;-79
2021/06/17 02:17:05;;;;;;;9.80;5.68;;;;;;;17.94;95.76;95297.47;1028380;28;20561;-79
2021/06/17 02:17:37;;;;;;;7.72;5.05;;;;;;;18.02;95.53;95311.34;1032512;28;20018;-79
2021/06/17 02:18:08;;;;;;;8.15;5.35;;;;;;;17.97;95.59;95297.81;1032510;28;20101;-78
2021/06/17 02:18:38;;;;;;;7.28;5.50;;;;;;;18.00;95.44;95301.91;1040426;28;20373;-77
2021/06/17 02:19:13;;;;;;;7.07;5.38;;;;;;;17.99;95.68;95295.72;1040445;28;20013;-76
2021/06/17 02:19:43;;;;;;;9.43;5.60;;;;;;;18.03;95.43;95309.50;1032219;28;20022;-79
2021/06/17 02:20:15;;;;;;;6.85;5.32;;;;;;;17.92;95.61;95292.34;1036298;28;20034;-78
2021/06/17 02:20:46;;;;;;;8.95;5.93;;;;;;;17.98;95.79;95299.44;1036296;28;20006;-77
2021/06/17 02:21:17;;;;;;;7.95;5.50;;;;;;;17.97;95.78;95305.88;1036422;28;20093;-77
2021/06/17 02:21:50;;;;;;;9.00;5.03;;;;;;;17.93;96.38;95302.03;1040454;28;20063;-76
2021/06/17 02:22:21;;;;;;;8.27;5.45;;;;;;;17.83;96.66;95293.75;1036439;28;20014;-78
2021/06/17 02:22:52;;;;;;;7.95;5.55;;;;;;;17.94;96.54;95310.91;1040417;28;20117;-77
2021/06/17 02:23:23;;;;;;;11.30;5.57;;;;;;;17.85;96.22;95294.31;1040493;28;20022;-78
2021/06/17 02:23:55;;;;;;;10.52;6.00;;;;;;;17.94;96.39;95302.84;1028453;28;20023;-80
2021/06/17 02:24:26;;;;;;;9.68;5.93;;;;;;;17.77;96.54;95276.72;1032699;28;20018;-76
2021/06/17 02:24:57;;;;;;;14.88;5.88;;;;;;;17.90;96.66;95297.97;1028220;28;20034;-77
2021/06/17 02:25:27;;;;;;;10.20;5.88;;;;;;;17.77;96.79;95279.41;1028463;28;20049;-77
2021/06/17 02:25:58;;;;;;;9.45;5.80;;;;;;;17.83;96.84;95297.22;1028537;28;20029;-79
2021/06/17 02:26:29;;;;;;;7.65;5.00;;;;;;;17.90;96.83;95300.66;1032260;28;20408;-76
2021/06/17 02:27:12;;;;;;;7.78;5.45;;;;;;;17.83;97.47;95296.44;1036264;28;20060;-78
2021/06/17 02:27:44;;;;;;;8.88;5.88;;;;;;;17.87;97.89;95298.44;1032388;28;20018;-77
2021/06/17 02:28:16;;;;;;;7.80;5.25;;;;;;;17.86;97.70;95296.78;1032185;28;20037;-77
2021/06/17 02:28:47;;;;;;;11.35;5.63;;;;;;;17.75;98.61;95286.88;1036260;28;20500;-78
2021/06/17 02:29:18;;;;;;;7.32;5.25;;;;;;;17.79;98.84;95293.41;1036341;28;20347;-77
2021/06/17 02:29:48;;;;;;;7.63;5.47;;;;;;;17.86;99.27;95296.00;1040347;28;20060;-77
2021/06/17 02:30:19;;;;;;;8.98;5.82;;;;;;;17.79;99.38;95298.78;1036261;28;20072;-79
2021/06/17 02:30:50;;;;;;;10.35;6.25;;;;;;;17.80;99.64;95297.72;1040503;28;20100;-77
2021/06/17 02:31:31;;;;;;;9.68;7.05;;;;;;;17.78;99.53;95291.78;1040248;28;20487;-77
2021/06/17 02:32:03;;;;;;;8.90;5.68;;;;;;;17.83;99.94;95297.22;1028178;28;20029;-78
2021/06/17 02:32:35;;;;;;;10.00;6.50;;;;;;;17.78;100.00;95297.16;1028399;28;20029;-77
2021/06/17 02:33:07;;;;;;;7.10;5.55;;;;;;;17.76;100.00;95301.94;1044678;28;20347;-78
2021/06/17 02:33:37;;;;;;;9.15;5.60;;;;;;;17.77;100.00;95294.72;1032273;28;20374;-77
2021/06/17 02:34:09;;;;;;;7.55;5.95;;;;;;;17.72;99.73;95296.22;1032085;28;20161;-77
2021/06/17 02:34:40;;;;;;;7.13;5.70;;;;;;;17.79;99.50;95295.28;1028441;28;20031;-78